Kezdőlap
METAR-TAF:

METAR-TAF

Repülőterek :

Paganella, Olaszország

földrajzi szélesség: 46-09N, földrajzi hosszúság: 011-02E, magasság: 2125 m

Jelenlegi meteorológiai megfigyelések

A jelentés 53 perccel ezelõtt készült, 23:55 UTC
Déli szél 2 kt
Hőmérséklet -1°C
Páratartalom 74%
Légköri nyomás 1022 hPa
Látótávolság 10 km, vagy több
felhőtlen 1500 m magasságban, és nincs gomolyfelhõ

METAR: LIVP 042355Z 19002KT CAVOK M01/M05 Q1022 RMK SKC MON LIB VAL S FOSCHIA SKC SUP VIS MIN 9999

Idő: 02:48 (00:48 UTC)


TAF: hiányzik

Meteorológiai megfigyelések és előrejelzések több, mint 4000 repülőtéren (METAR és TAF jelentéseket).

A térképen piros és sárga pontok jelzik az elérhető meteorológiai állomásokat.

Mozgassa az egeret a pont fölött, hogy megjelenjen az állomás neve.

Azután kattintson az időjárási megfigyelések és előrejelzések megtekintéséhez.

A térkép megváltoztatása: kattintson a fekete keresztel jelölt zöld gombra ráközelítéshez, a vonallal jelölt zöld gombra távolításhoz, vagy a zöld nyilakra a szomszédos térképek eléréséhez.


METAR-TAF: